createdAt,value
2022-11-26T00:00:02.503Z,63.33
2022-11-26T00:02:32.712Z,63.67
2022-11-26T00:05:02.553Z,68.00
2022-11-26T00:07:34.554Z,69.67
2022-11-26T00:10:19.839Z,59.00
2022-11-26T00:12:49.893Z,70.00
2022-11-26T00:15:32.090Z,75.00
2022-11-26T00:18:01.510Z,61.67
2022-11-26T00:20:32.386Z,61.33
2022-11-26T00:23:04.493Z,78.00
2022-11-26T00:26:04.002Z,66.33
2022-11-26T00:28:38.721Z,71.33
2022-11-26T00:31:16.477Z,72.33
2022-11-26T00:33:46.454Z,73.00
2022-11-26T00:36:32.765Z,72.67
2022-11-26T00:39:13.061Z,75.00
2022-11-26T00:41:42.565Z,73.00
2022-11-26T00:44:22.712Z,70.33
2022-11-26T00:46:53.084Z,69.00
2022-11-26T00:49:23.207Z,68.33
2022-11-26T00:51:52.680Z,68.33
2022-11-26T00:54:23.508Z,71.00
2022-11-26T00:56:53.303Z,65.67
2022-11-26T00:59:24.097Z,71.00
2022-11-26T01:01:53.552Z,60.00
2022-11-26T01:04:23.056Z,69.33
2022-11-26T01:06:52.700Z,69.33
2022-11-26T01:09:23.290Z,65.67
2022-11-26T01:11:54.445Z,66.00
2022-11-26T01:14:24.387Z,62.00
2022-11-26T01:16:57.425Z,60.67
2022-11-26T01:19:26.953Z,60.00
2022-11-26T01:21:56.375Z,59.67
2022-11-26T01:24:25.782Z,61.67
2022-11-26T01:26:55.220Z,59.33
2022-11-26T01:29:24.662Z,65.67
2022-11-26T01:31:54.154Z,64.00
2022-11-26T01:34:23.585Z,59.33
2022-11-26T01:36:53.036Z,63.33
2022-11-26T01:39:24.190Z,56.67
2022-11-26T01:42:11.333Z,64.33
2022-11-26T01:44:41.126Z,63.33
2022-11-26T01:47:30.091Z,63.00
2022-11-26T01:50:32.828Z,60.67
2022-11-26T01:53:16.376Z,65.67
2022-11-26T01:55:52.831Z,68.00
2022-11-26T01:58:39.681Z,66.00
2022-11-26T02:01:09.697Z,61.67
2022-11-26T02:03:58.984Z,58.00
2022-11-26T02:06:34.219Z,58.00
2022-11-26T02:09:07.379Z,49.00
2022-11-26T02:11:38.413Z,47.00
2022-11-26T02:14:25.396Z,57.67
2022-11-26T02:17:47.717Z,60.00
2022-11-26T02:20:58.463Z,53.67
2022-11-26T02:24:12.142Z,60.33
2022-11-26T02:27:12.724Z,65.00
2022-11-26T02:30:09.507Z,55.50
2022-11-26T02:33:06.202Z,67.50
2022-11-26T02:35:48.144Z,67.00
2022-11-26T02:38:25.284Z,62.33
2022-11-26T02:40:54.731Z,61.00
2022-11-26T02:43:26.316Z,63.00
2022-11-26T02:46:03.894Z,61.00
2022-11-26T02:48:42.314Z,68.67
2022-11-26T02:51:24.720Z,53.33
2022-11-26T02:53:56.401Z,65.00
2022-11-26T02:56:28.520Z,60.33
2022-11-26T02:58:59.637Z,54.67
2022-11-26T03:01:40.642Z,62.33
2022-11-26T03:04:19.912Z,59.33
2022-11-26T03:06:50.448Z,54.67
2022-11-26T03:09:23.568Z,64.33
2022-11-26T03:11:53.148Z,58.67
2022-11-26T03:14:22.564Z,59.00
2022-11-26T03:16:51.298Z,52.50
2022-11-26T03:19:20.744Z,53.33
2022-11-26T03:21:50.201Z,69.00
2022-11-26T03:24:19.649Z,55.00
2022-11-26T03:26:48.334Z,50.50
2022-11-26T03:29:17.802Z,61.33
2022-11-26T03:31:47.413Z,63.33
2022-11-26T03:34:16.971Z,54.67
2022-11-26T03:36:47.204Z,58.00
2022-11-26T03:39:15.893Z,54.50
2022-11-26T03:41:45.444Z,41.33
2022-11-26T03:44:15.791Z,54.67
2022-11-26T03:46:45.253Z,47.00
2022-11-26T03:49:14.715Z,57.67
2022-11-26T03:51:44.176Z,60.33
2022-11-26T03:54:12.835Z,42.50
2022-11-26T03:56:42.408Z,59.33
2022-11-26T03:59:12.334Z,63.67
2022-11-26T04:01:41.844Z,59.33
2022-11-26T04:04:10.590Z,46.50
2022-11-26T04:06:39.533Z,60.50
2022-11-26T04:09:08.974Z,57.00
2022-11-26T04:11:38.510Z,49.67
2022-11-26T04:14:08.056Z,53.67
2022-11-26T04:16:37.645Z,53.67
2022-11-26T04:19:07.108Z,44.00
2022-11-26T04:21:35.744Z,43.00
2022-11-26T04:24:05.705Z,50.67
2022-11-26T04:26:35.164Z,70.67
2022-11-26T04:29:05.092Z,50.67
2022-11-26T04:31:34.663Z,54.33
2022-11-26T04:34:03.615Z,44.00
2022-11-26T04:36:33.458Z,46.33
2022-11-26T04:39:02.083Z,42.00
2022-11-26T04:41:30.722Z,42.00
2022-11-26T04:44:00.205Z,51.00
2022-11-26T04:46:29.628Z,48.00
2022-11-26T04:48:59.085Z,50.00
2022-11-26T04:51:27.799Z,47.50
2022-11-26T04:54:00.412Z,48.67
2022-11-26T04:56:31.599Z,38.50
2022-11-26T04:59:01.078Z,54.67
2022-11-26T05:01:30.586Z,47.33
2022-11-26T05:04:00.187Z,43.00
2022-11-26T05:06:29.612Z,57.00
2022-11-26T05:08:58.324Z,40.00
2022-11-26T05:11:27.778Z,52.00
2022-11-26T05:13:57.169Z,42.00
2022-11-26T05:16:26.759Z,58.67
2022-11-26T05:18:56.563Z,45.33
2022-11-26T05:21:26.085Z,58.00
2022-11-26T05:23:54.739Z,47.50
2022-11-26T05:26:23.413Z,41.50
2022-11-26T05:28:52.836Z,42.67
2022-11-26T05:31:22.376Z,48.00
2022-11-26T05:33:51.880Z,35.67
2022-11-26T05:36:21.340Z,43.00
2022-11-26T05:38:50.793Z,46.67
2022-11-26T05:41:19.477Z,32.00
2022-11-26T05:43:48.103Z,35.00
2022-11-26T05:46:18.269Z,42.50
2022-11-26T05:48:46.913Z,31.00
2022-11-26T05:51:15.571Z,35.50
2022-11-26T05:53:44.372Z,37.00
2022-11-26T05:56:12.098Z,46.50
2022-11-26T05:58:45.673Z,54.67
2022-11-26T06:01:15.175Z,42.33
2022-11-26T06:03:44.648Z,37.67
2022-11-26T06:06:13.423Z,36.00
2022-11-26T06:08:42.132Z,49.50
2022-11-26T06:11:13.679Z,55.33
2022-11-26T06:13:42.541Z,42.50
2022-11-26T06:16:11.253Z,42.50
2022-11-26T06:18:40.314Z,36.50
2022-11-26T06:21:09.331Z,33.00
2022-11-26T06:23:38.962Z,38.67
2022-11-26T06:26:12.717Z,34.50
2022-11-26T06:28:42.114Z,40.00
2022-11-26T06:31:11.538Z,58.33
2022-11-26T06:33:41.041Z,44.33
2022-11-26T06:36:11.605Z,45.33
2022-11-26T06:38:41.103Z,55.00
2022-11-26T06:41:10.614Z,52.33
2022-11-26T06:43:40.120Z,41.00
2022-11-26T06:46:12.462Z,45.67
2022-11-26T06:48:42.260Z,55.00
2022-11-26T06:51:20.731Z,40.33
2022-11-26T06:53:50.177Z,47.33
2022-11-26T06:56:19.896Z,47.33
2022-11-26T06:58:52.209Z,47.00
2022-11-26T07:01:26.533Z,47.67
2022-11-26T07:03:56.157Z,53.00
2022-11-26T07:06:35.950Z,50.67
2022-11-26T07:09:10.372Z,81.00
2022-11-26T07:11:41.812Z,82.67
2022-11-26T07:14:10.889Z,54.50
2022-11-26T07:16:39.585Z,52.00
2022-11-26T07:19:14.657Z,58.67
2022-11-26T07:21:44.273Z,62.67
2022-11-26T07:24:13.707Z,61.00
2022-11-26T07:26:43.352Z,61.67
2022-11-26T07:29:12.194Z,53.00
2022-11-26T07:31:41.618Z,47.67
2022-11-26T07:34:11.083Z,47.00
2022-11-26T07:36:43.454Z,51.00
2022-11-26T07:39:12.629Z,56.00
2022-11-26T07:41:42.089Z,55.00
2022-11-26T07:44:15.582Z,54.33
2022-11-26T07:46:45.152Z,44.67
2022-11-26T07:49:14.736Z,45.67
2022-11-26T07:51:43.415Z,55.50
2022-11-26T07:54:12.117Z,47.00
2022-11-26T07:56:40.947Z,53.00
2022-11-26T07:59:12.465Z,50.33
2022-11-26T08:01:41.205Z,52.00
2022-11-26T08:04:10.029Z,52.50
2022-11-26T08:06:39.503Z,74.67
2022-11-26T08:09:10.471Z,67.00
2022-11-26T08:11:39.970Z,63.33
2022-11-26T08:14:13.080Z,59.67
2022-11-26T08:16:41.695Z,35.50
2022-11-26T08:19:14.366Z,36.33
2022-11-26T08:21:43.769Z,44.67
2022-11-26T08:24:19.903Z,46.00
2022-11-26T08:26:49.412Z,50.33
2022-11-26T08:29:19.013Z,41.67
2022-11-26T08:31:48.945Z,38.00
2022-11-26T08:34:19.075Z,45.33
2022-11-26T08:36:48.596Z,57.00
2022-11-26T08:39:19.155Z,40.50
2022-11-26T08:41:52.390Z,49.67
2022-11-26T08:44:21.796Z,53.50
2022-11-26T08:46:51.221Z,40.33
2022-11-26T08:49:20.762Z,55.67
2022-11-26T08:51:50.172Z,50.67
2022-11-26T08:54:18.721Z,49.00
2022-11-26T08:56:48.097Z,47.67
2022-11-26T08:59:17.665Z,53.00
2022-11-26T09:01:47.239Z,49.67
2022-11-26T09:04:16.873Z,54.67
2022-11-26T09:06:46.283Z,56.33
2022-11-26T09:09:17.663Z,51.33
2022-11-26T09:11:57.998Z,57.67
2022-11-26T09:14:34.830Z,47.50
2022-11-26T09:17:04.978Z,52.67
2022-11-26T09:19:34.097Z,41.00
2022-11-26T09:22:02.744Z,53.00
2022-11-26T09:24:32.294Z,42.67
2022-11-26T09:27:07.477Z,51.67
2022-11-26T09:29:37.795Z,45.33
2022-11-26T09:32:24.470Z,54.00
2022-11-26T09:34:55.885Z,50.00
2022-11-26T09:37:25.361Z,55.00
2022-11-26T09:39:56.187Z,58.33
2022-11-26T09:43:23.653Z,55.00
2022-11-26T09:45:59.592Z,57.00
2022-11-26T09:48:33.236Z,76.67
2022-11-26T09:51:13.959Z,91.00
2022-11-26T09:53:49.457Z,74.33
2022-11-26T09:56:27.362Z,63.33
2022-11-26T09:59:03.360Z,68.67
2022-11-26T10:01:34.208Z,70.67
2022-11-26T10:04:09.472Z,75.33
2022-11-26T10:06:59.868Z,83.00
2022-11-26T10:11:01.202Z,72.67
2022-11-26T10:14:13.446Z,92.33
2022-11-26T10:17:24.150Z,86.00
2022-11-26T10:20:30.319Z,78.33
2022-11-26T10:23:13.005Z,64.50
2022-11-26T10:26:07.943Z,82.67
2022-11-26T10:28:48.803Z,71.00
2022-11-26T10:31:27.529Z,76.33
2022-11-26T10:34:05.207Z,76.00
2022-11-26T10:36:45.330Z,79.00
2022-11-26T10:39:18.114Z,86.33
2022-11-26T10:41:48.606Z,71.67
2022-11-26T10:44:41.810Z,57.33
2022-11-26T10:47:32.053Z,60.33
2022-11-26T10:50:19.148Z,43.33
2022-11-26T10:52:53.846Z,50.50
2022-11-26T10:55:32.440Z,62.50
2022-11-26T10:58:19.609Z,62.67
2022-11-26T11:00:52.003Z,62.00
2022-11-26T11:06:42.615Z,60.67
2022-11-26T11:09:31.611Z,55.00
2022-11-26T11:12:25.847Z,61.50
2022-11-26T11:14:55.436Z,60.67
2022-11-26T11:17:35.350Z,61.67
2022-11-26T11:20:29.181Z,60.67
2022-11-26T11:23:07.702Z,56.00
2022-11-26T11:25:42.282Z,70.00
2022-11-26T11:28:22.645Z,67.00
2022-11-26T11:31:25.501Z,56.33
2022-11-26T11:34:21.081Z,57.50
2022-11-26T11:37:05.283Z,49.33
2022-11-26T11:39:36.118Z,58.00
2022-11-26T11:42:22.943Z,74.67
2022-11-26T11:44:53.152Z,73.33
2022-11-26T11:47:44.934Z,62.33
2022-11-26T11:50:42.065Z,54.50
2022-11-26T11:53:50.957Z,63.00
2022-11-26T11:56:41.925Z,57.00
2022-11-26T12:00:12.837Z,61.67
2022-11-26T12:03:10.833Z,66.67
2022-11-26T12:06:20.425Z,65.00
2022-11-26T12:09:26.779Z,60.67
2022-11-26T12:12:35.762Z,67.67
2022-11-26T12:15:34.322Z,65.00
2022-11-26T12:18:27.631Z,60.33
2022-11-26T12:21:16.687Z,62.67
2022-11-26T12:24:08.822Z,70.33
2022-11-26T12:27:01.046Z,72.00
2022-11-26T12:29:50.299Z,66.33
2022-11-26T12:32:38.397Z,73.67
2022-11-26T12:35:25.831Z,71.33
2022-11-26T12:38:02.706Z,66.50
2022-11-26T12:41:07.216Z,66.00
2022-11-26T12:44:00.798Z,65.33
2022-11-26T12:47:20.857Z,61.33
2022-11-26T12:50:21.078Z,66.67
2022-11-26T12:53:19.181Z,66.00
2022-11-26T12:56:05.128Z,72.33
2022-11-26T12:59:14.005Z,68.33
2022-11-26T13:01:43.487Z,70.33
2022-11-26T13:04:36.795Z,73.67
2022-11-26T13:08:15.006Z,79.67
2022-11-26T13:11:42.003Z,88.33
2022-11-26T13:14:53.533Z,82.33
2022-11-26T13:17:47.880Z,76.67
2022-11-26T13:21:00.692Z,74.67
2022-11-26T13:23:39.998Z,73.75
2022-11-26T13:27:15.422Z,74.67
2022-11-26T13:30:19.373Z,71.67
2022-11-26T13:33:41.693Z,66.67
2022-11-26T13:36:56.441Z,86.67
2022-11-26T13:40:03.635Z,75.50
2022-11-26T13:43:19.096Z,76.00
2022-11-26T13:46:05.894Z,78.33
2022-11-26T13:49:16.803Z,80.00
2022-11-26T13:52:00.265Z,83.25
2022-11-26T13:54:57.080Z,89.33
2022-11-26T13:57:39.392Z,86.50
2022-11-26T14:00:10.865Z,81.67
2022-11-26T14:02:44.587Z,83.67
2022-11-26T14:05:16.776Z,86.33
2022-11-26T14:07:47.242Z,89.00
2022-11-26T14:10:34.694Z,89.00
2022-11-26T14:13:04.143Z,88.67
2022-11-26T14:15:42.610Z,87.50
2022-11-26T14:18:15.803Z,93.50
2022-11-26T14:21:00.807Z,89.33
2022-11-26T14:23:44.973Z,89.00
2022-11-26T14:26:38.432Z,93.50
2022-11-26T14:29:08.710Z,93.50
2022-11-26T14:32:00.938Z,102.25
2022-11-26T14:34:57.608Z,97.33
2022-11-26T14:37:31.012Z,89.67
2022-11-26T14:40:26.012Z,95.50
2022-11-26T14:43:16.567Z,93.33
2022-11-26T14:46:15.238Z,95.00
2022-11-26T14:48:51.030Z,101.75
2022-11-26T14:51:27.362Z,103.25
2022-11-26T14:53:59.625Z,109.50
2022-11-26T14:56:31.147Z,105.67
2022-11-26T14:59:03.116Z,96.00
2022-11-26T15:01:33.571Z,104.00
2022-11-26T15:04:07.154Z,107.00
2022-11-26T15:06:43.408Z,114.00
2022-11-26T15:09:27.004Z,113.50
2022-11-26T15:12:15.337Z,125.50
2022-11-26T15:14:59.031Z,134.50
2022-11-26T15:17:30.564Z,136.00
2022-11-26T15:20:06.910Z,155.20
2022-11-26T15:22:55.799Z,153.67
2022-11-26T15:25:37.553Z,154.00
2022-11-26T15:28:19.112Z,140.50
2022-11-26T15:30:59.658Z,139.00
2022-11-26T15:33:34.279Z,129.50
2022-11-26T15:36:04.807Z,112.00
2022-11-26T15:39:00.156Z,110.75
2022-11-26T15:41:31.403Z,108.50
2022-11-26T15:44:01.428Z,103.67
2022-11-26T15:46:37.774Z,110.25
2022-11-26T15:49:21.638Z,115.50
2022-11-26T15:52:14.182Z,100.25
2022-11-26T15:55:19.830Z,110.33
2022-11-26T15:57:52.683Z,137.67
2022-11-26T16:00:37.700Z,118.67
2022-11-26T16:03:49.620Z,113.00
2022-11-26T16:06:37.811Z,94.33
2022-11-26T16:09:28.178Z,88.33
2022-11-26T16:12:01.286Z,94.00
2022-11-26T16:14:36.204Z,96.33
2022-11-26T16:17:18.402Z,95.67
2022-11-26T16:19:57.756Z,90.67
2022-11-26T16:22:33.198Z,95.00
2022-11-26T16:25:24.498Z,99.25
2022-11-26T16:28:07.269Z,97.00
2022-11-26T16:30:39.682Z,98.67
2022-11-26T16:33:10.056Z,95.67
2022-11-26T16:35:46.030Z,104.67
2022-11-26T16:38:27.859Z,115.33
2022-11-26T16:40:58.238Z,118.75
2022-11-26T16:43:27.831Z,101.00
2022-11-26T16:45:59.613Z,116.50
2022-11-26T16:48:29.420Z,116.00
2022-11-26T16:50:58.989Z,96.33
2022-11-26T16:53:28.472Z,95.75
2022-11-26T16:55:58.399Z,95.33
2022-11-26T16:58:33.821Z,89.00
2022-11-26T17:01:03.853Z,93.00
2022-11-26T17:03:33.647Z,91.33
2022-11-26T17:06:16.872Z,97.33
2022-11-26T17:08:49.892Z,96.33
2022-11-26T17:11:21.622Z,96.43
2022-11-26T17:13:51.612Z,87.33
2022-11-26T17:16:23.696Z,91.00
2022-11-26T17:18:53.237Z,90.50
2022-11-26T17:21:22.789Z,85.00
2022-11-26T17:23:52.209Z,81.67
2022-11-26T17:26:24.377Z,88.33
2022-11-26T17:28:54.017Z,89.67
2022-11-26T17:31:23.528Z,84.67
2022-11-26T17:33:53.371Z,90.00
2022-11-26T17:36:24.130Z,89.67
2022-11-26T17:38:53.792Z,98.00
2022-11-26T17:41:23.359Z,99.67
2022-11-26T17:43:52.971Z,117.33
2022-11-26T17:46:23.434Z,109.67
2022-11-26T17:48:58.262Z,96.33
2022-11-26T17:51:32.131Z,92.33
2022-11-26T17:54:01.712Z,94.67
2022-11-26T17:56:31.714Z,90.00
2022-11-26T17:59:03.198Z,96.25
2022-11-26T18:01:32.887Z,96.33
2022-11-26T18:04:02.613Z,103.67
2022-11-26T18:07:13.467Z,87.33
2022-11-26T18:09:43.763Z,89.00
2022-11-26T18:12:25.734Z,96.33
2022-11-26T18:14:57.651Z,93.00
2022-11-26T18:17:28.131Z,90.33
2022-11-26T18:19:57.834Z,98.00
2022-11-26T18:22:29.300Z,98.33
2022-11-26T18:24:59.750Z,98.50
2022-11-26T18:27:31.232Z,90.00
2022-11-26T18:30:02.974Z,114.75
2022-11-26T18:32:32.646Z,92.00
2022-11-26T18:35:03.388Z,115.75
2022-11-26T18:37:37.420Z,122.25
2022-11-26T18:40:11.732Z,90.67
2022-11-26T18:42:42.199Z,126.00
2022-11-26T18:45:15.375Z,172.00
2022-11-26T18:47:45.322Z,113.33
2022-11-26T18:50:17.986Z,108.33
2022-11-26T18:52:47.549Z,100.25
2022-11-26T18:55:16.918Z,137.50
2022-11-26T18:57:46.549Z,122.33
2022-11-26T19:00:17.709Z,192.75
2022-11-26T19:02:45.732Z,142.50
2022-11-26T19:05:16.315Z,129.50
2022-11-26T19:07:46.848Z,144.25
2022-11-26T19:10:17.451Z,116.25
2022-11-26T19:12:49.304Z,122.50
2022-11-26T19:15:19.838Z,121.25
2022-11-26T19:17:50.260Z,111.00
2022-11-26T19:20:19.872Z,111.00
2022-11-26T19:22:50.431Z,123.25
2022-11-26T19:25:21.135Z,127.50
2022-11-26T19:27:51.569Z,114.25
2022-11-26T19:30:24.569Z,121.00
2022-11-26T19:32:55.074Z,137.75
2022-11-26T19:35:25.755Z,125.75
2022-11-26T19:37:55.442Z,109.00
2022-11-26T19:40:26.032Z,133.75
2022-11-26T19:42:56.443Z,128.25
2022-11-26T19:45:24.933Z,138.00
2022-11-26T19:47:53.028Z,127.00
2022-11-26T19:50:22.601Z,143.50
2022-11-26T19:52:53.999Z,157.86
2022-11-26T19:55:21.813Z,145.00
2022-11-26T19:57:52.328Z,152.25
2022-11-26T20:00:20.501Z,153.50
2022-11-26T20:02:50.171Z,211.00
2022-11-26T20:05:19.782Z,222.50
2022-11-26T20:07:49.641Z,197.00
2022-11-26T20:10:17.662Z,169.00
2022-11-26T20:12:45.491Z,164.00
2022-11-26T20:15:13.330Z,186.00
2022-11-26T20:17:43.032Z,170.25
2022-11-26T20:20:11.398Z,142.00
2022-11-26T20:22:41.003Z,180.00
2022-11-26T20:25:09.492Z,170.50
2022-11-26T20:27:40.139Z,161.25
2022-11-26T20:30:12.299Z,129.75
2022-11-26T20:32:40.195Z,138.50
2022-11-26T20:35:11.251Z,138.00
2022-11-26T20:37:40.831Z,129.75
2022-11-26T20:40:10.425Z,143.00
2022-11-26T20:42:40.985Z,142.25
2022-11-26T20:45:09.234Z,156.00
2022-11-26T20:47:40.236Z,160.00
2022-11-26T20:50:11.051Z,165.75
2022-11-26T20:52:38.931Z,145.00
2022-11-26T20:55:09.977Z,150.75
2022-11-26T20:57:40.473Z,146.50
2022-11-26T21:00:17.072Z,167.86
2022-11-26T21:02:48.742Z,154.50
2022-11-26T21:05:19.624Z,201.75
2022-11-26T21:07:51.287Z,307.00
2022-11-26T21:10:25.224Z,210.75
2022-11-26T21:12:53.050Z,193.00
2022-11-26T21:15:23.223Z,192.50
2022-11-26T21:17:53.723Z,166.00
2022-11-26T21:20:25.210Z,301.67
2022-11-26T21:22:55.784Z,370.25
2022-11-26T21:25:26.589Z,290.75
2022-11-26T21:27:56.177Z,206.00
2022-11-26T21:30:24.166Z,196.00
2022-11-26T21:32:52.042Z,192.50
2022-11-26T21:35:22.531Z,164.75
2022-11-26T21:37:53.835Z,156.80
2022-11-26T21:40:23.795Z,135.25
2022-11-26T21:42:53.812Z,144.67
2022-11-26T21:45:22.267Z,155.00
2022-11-26T21:47:52.999Z,128.75
2022-11-26T21:50:24.351Z,132.25
2022-11-26T21:52:54.926Z,123.75
2022-11-26T21:55:25.388Z,122.75
2022-11-26T21:57:55.858Z,134.00
2022-11-26T22:00:23.629Z,115.00
2022-11-26T22:02:53.331Z,116.00
2022-11-26T22:05:23.009Z,110.00
2022-11-26T22:07:52.831Z,104.00
2022-11-26T22:10:22.451Z,96.00
2022-11-26T22:12:51.999Z,96.00
2022-11-26T22:15:21.618Z,105.33
2022-11-26T22:17:51.185Z,96.00
2022-11-26T22:20:20.740Z,91.00
2022-11-26T22:22:51.175Z,112.50
2022-11-26T22:25:18.954Z,135.00
2022-11-26T22:27:48.535Z,113.67
2022-11-26T22:30:16.975Z,136.50
2022-11-26T22:32:47.432Z,123.75
2022-11-26T22:35:15.245Z,121.50
2022-11-26T22:37:44.848Z,111.00
2022-11-26T22:40:15.466Z,128.00
2022-11-26T22:42:43.218Z,140.00
2022-11-26T22:45:14.588Z,149.40
2022-11-26T22:47:42.364Z,151.00
2022-11-26T22:50:12.918Z,139.75
2022-11-26T22:52:43.579Z,138.00
2022-11-26T22:55:13.191Z,153.33
2022-11-26T22:57:41.208Z,189.50
2022-11-26T23:00:52.833Z,199.00
2022-11-26T23:03:25.610Z,173.50
2022-11-26T23:05:56.011Z,182.00
2022-11-26T23:08:23.869Z,150.50
2022-11-26T23:10:54.297Z,165.75
2022-11-26T23:13:23.941Z,165.25
2022-11-26T23:15:53.550Z,153.67
2022-11-26T23:18:23.355Z,168.50
2022-11-26T23:20:51.185Z,169.00
2022-11-26T23:23:19.828Z,190.00
2022-11-26T23:25:47.642Z,185.50
2022-11-26T23:28:15.443Z,182.50
2022-11-26T23:30:45.933Z,165.50
2022-11-26T23:33:16.411Z,181.75
2022-11-26T23:35:46.003Z,196.50
2022-11-26T23:38:13.823Z,185.50
2022-11-26T23:40:44.283Z,160.50
2022-11-26T23:43:15.627Z,154.29
2022-11-26T23:45:45.229Z,158.67
2022-11-26T23:48:14.995Z,175.50
2022-11-26T23:50:44.747Z,181.33
2022-11-26T23:53:12.552Z,169.00
2022-11-26T23:55:42.152Z,177.00
2022-11-26T23:58:09.911Z,155.00
